• Join FlightAware (Why Join?)
  • Login
  • US Flag 
05:27AM EDT


 

Airport Tracker/Info


-or-


 

Live Flight TrackerFlight Track Log ✈ UAL6118 ✈ 25-Apr-2013 ✈ KSGF - KORD

Flight Track Log - Related Links

Times and Time Zones

All times are in EDT time to prevent confusion due to time zone crossing. See the UAL6118 flight status page for this flight to view local times or setup timezone preferences in your user account.

Time Position Orientation Groundspeed Altitude Reporting Facility
EDT Latitude Longitude Course Direction KTS MPH feet Rate Location/Type
08:03PM 37.2892 -93.2683 35° Northeast 285 328 5,600  Level Kansas City Center
08:04PM 37.3639 -93.2325 21° North 287 330 8,700 2,520 Climbing Kansas City Center
08:05PM 37.4392 -93.1864 26° Northeast 296 341 10,800 1,800 Climbing Kansas City Center
08:06PM 37.6645 -93.0356 38° Northeast  Level FlightAware Approximate
08:06PM 37.5239 -93.1331 27° Northeast 327 376 12,400  Level Kansas City Center
08:07PM 37.7477 -92.9572 35° Northeast  Level FlightAware Approximate
08:07PM 37.6153 -93.0731 27° Northeast 355 409 14,000  Level Kansas City Center
08:08PM 37.8323 -92.8810 35° Northeast  Level FlightAware Approximate
08:08PM 37.7097 -93.0056 29° Northeast 381 438 15,600  Level Kansas City Center
08:09PM 37.8186 -92.9056 36° Northeast 398 458 17,500 1,500 Climbing Kansas City Center
08:10PM 37.9094 -92.8214 36° Northeast 400 460 18,800 1,320 Climbing Kansas City Center
08:11PM 37.9908 -92.7431 37° Northeast 402 463 20,300 1,440 Climbing Kansas City Center
08:12PM 38.0822 -92.6581 36° Northeast 407 468 21,800 1,500 Climbing Kansas City Center
08:13PM 38.1731 -92.5714 37° Northeast 408 470 23,400 1,560 Climbing Kansas City Center
08:14PM 38.2783 -92.4722 36° Northeast 410 472 25,100 1,560 Climbing Kansas City Center
08:15PM 38.3708 -92.3847 37° Northeast 409 471 26,700 1,560 Climbing Kansas City Center
08:16PM 38.4614 -92.2983 37° Northeast 406 467 28,300 1,080 Climbing Kansas City Center
08:17PM 38.5506 -92.2122 37° Northeast 402 463 29,000 300 Climbing Kansas City Center
08:18PM 38.6494 -92.1178 37° Northeast 428 493 29,000 720 Level Kansas City Center
08:19PM 38.7703 -91.9994 37° Northeast 450 518 30,500 960 Climbing Kansas City Center
08:20PM 38.8703 -91.9042 37° Northeast 446 513 31,000 240 Climbing Kansas City Center
08:21PM 38.9736 -91.8033 37° Northeast 458 527 31,000  Level Kansas City Center
08:22PM 39.0781 -91.7011 37° Northeast 467 537 31,000  Level Kansas City Center
08:23PM 39.1847 -91.5978 37° Northeast 471 542 31,000  Level Kansas City Center
08:24PM 39.2911 -91.4950 37° Northeast 474 545 31,000  Level Kansas City Center
08:25PM 39.3964 -91.3903 38° Northeast 475 547 31,000  Level Kansas City Center
08:26PM 39.5006 -91.2875 37° Northeast 473 544 31,000  Level Kansas City Center
08:27PM 39.6042 -91.1856 37° Northeast 469 540 31,000  Level Kansas City Center
08:28PM 39.7272 -91.0619 38° Northeast 467 537 31,000  Level Kansas City Center
08:29PM 39.8222 -90.9667 38° Northeast 469 540 31,000  Level Kansas City Center
08:30PM 39.9256 -90.8631 38° Northeast 469 540 31,000  Level Kansas City Center
08:32PM 40.0272 -90.7606 38° Northeast 464 534 31,000  Level Kansas City Center
08:33PM 40.1444 -90.6419 38° Northeast 450 518 31,000  Level Kansas City Center
08:33PM 40.1758 -90.6100 38° Northeast 448 516 31,000  Level Chicago Center
08:34PM 40.2856 -90.4983 38° Northeast 457 526 31,000  Level Chicago Center
08:35PM 40.3858 -90.3947 38° Northeast 459 528 31,000  Level Chicago Center
08:36PM 40.4872 -90.2906 38° Northeast 461 531 31,000  Level Chicago Center
08:37PM 40.6028 -90.1706 38° Northeast 462 532 31,000  Level Chicago Center
08:38PM 40.7042 -90.0667 38° Northeast 464 534 31,000  Level Chicago Center
08:39PM 40.8058 -89.9611 38° Northeast 465 535 31,000 -1,020 Level Chicago Center
08:40PM 40.9064 -89.8544 39° Northeast 465 535 29,000 -2,340 Descending Chicago Center
08:41PM 41.0164 -89.7258 41° Northeast 466 536 26,200 -2,400 Descending Chicago Center
08:42PM 41.0911 -89.5828 55° Northeast 472 543 24,100 -1,860 Descending Chicago Center
08:43PM 41.1572 -89.4481 57° Northeast 443 510 22,400 -1,980 Descending Chicago Center
08:44PM 41.2242 -89.3114 57° Northeast 441 507 20,100 -2,100 Descending Chicago Center
08:45PM 41.2900 -89.1750 57° Northeast 434 499 18,100 -1,800 Descending Chicago Center
08:46PM 41.3508 -89.0450 58° Northeast 419 482 16,400 -1,500 Descending Chicago Center
08:47PM 41.4117 -88.9172 58° Northeast 411 473 15,000 -1,260 Descending Chicago Center
08:48PM 41.4814 -88.7717 57° Northeast 394 453 13,900 -1,380 Descending Chicago Center
08:49PM 41.5328 -88.6553 59° Northeast 371 427 12,200 -1,440 Descending Chicago Center
08:50PM 41.5797 -88.5342 63° Northeast 368 423 11,000 -780 Descending Chicago Center
08:52PM 41.6353 -88.4192 57° Northeast 365 420 10,700 -540 Descending Chicago Center
08:53PM 41.6969 -88.3150 52° Northeast 358 412 10,000 -480 Descending Chicago Center
08:54PM 41.7522 -88.2203 52° Northeast 329 379 9,800 -1,080 Descending Chicago Center
08:55PM 41.8092 -88.1222 52° Northeast 278 320 7,800 -1,380 Descending Chicago Center
08:56PM 41.8553 -88.0417 52° Northeast 273 314 7,000 -600 Descending Chicago Center
08:56PM 41.8833 -88.0000 48° Northeast 281 323 7,000  Level Chicago TRACON
08:57PM 41.8833 -87.9000 90° East 269 310 7,000 -180 Level Chicago TRACON
08:58PM 41.8833 -87.8000 90° East 244 281 6,700 -720 Descending Chicago TRACON
08:59PM 41.8833 -87.7167 90° East 228 262 5,600 -1,380 Descending Chicago TRACON
09:00PM 41.9167 -87.6500 56° Northeast 232 267 4,000 -900 Descending Chicago TRACON
09:01PM 41.9667 -87.6833 334° Northwest 188 216 3,800 -600 Descending Chicago TRACON
09:02PM 41.9667 -87.7500 270° West 177 204 2,800 -1,020 Descending Chicago TRACON
09:03PM 41.9667 -87.8000 270° West 143 165 1,900 -900 Descending Chicago TRACON
09:04PM 41.9667 -87.8500 270° West 134 154 1,100 -780 Descending Chicago TRACON